Greenwood, Louisiana
Current Conditions -  °F | °C
As of 3:56 PM on Thursday 27 Nov 2014 (Local Time) from KSHV Reporting Station
Clear Clear  
Wind Chill: 57°   Ceiling: Unl
Heat Index: 57°   Visibility: 10mi
Dew Point: 25°   Wind: 3mph
Humidity: 29%   Direction: NA
Pressure: 30.44"   Gusts: NA
Location:  32.44°N, 93.97°W
Report Text: KSHV 272156Z VRB03KT 10SM CLR 14/M04 A3044 RMK AO2 SLP308 T01391039
Loading
Personal Weather Stations






























Interactive Weather Map New forecast layout! Learn more

10-Day Weather Forecast

Advertisements
Track Severe Weather on mobile